This is the latest recevied weather packets stored in our database for station/object GW1699. If no packets are shown the sender has not sent any weather packets the latest 10 day(s).
| Time | Temp. | Humidity | Pressure | Rain* | Wind** | Luminosity | Snow |
|---|---|---|---|---|---|---|---|
| 1778099591 | 12.78° C | 96% | 1009.8 hPa | 17.53 mm | - | - | - |
| 1778096393 | 13.33° C | 97% | 1009.1 hPa | 17.53 mm | - | - | - |
| 1778094943 | 13.33° C | 98% | 1009.1 hPa | 17.53 mm | - | - | - |
| 1778094221 | 13.33° C | 97% | 1009.1 hPa | 17.53 mm | - | - | - |
| 1778092760 | 13.89° C | 98% | 1009.1 hPa | 17.53 mm | - | - | - |
| 1778089887 | 14.44° C | 99% | 1008.8 hPa | 17.53 mm | - | - | - |
| 1778085586 | 16.11° C | 99% | 1008.4 hPa | 17.27 mm | - | - | - |
| 1778084869 | 16.11° C | 99% | 1008.4 hPa | 17.27 mm | - | - | - |
| 1778084146 | 16.11° C | 99% | 1008.4 hPa | 17.27 mm | - | - | - |
| 1778080174 | 15.56° C | 99% | 1007.7 hPa | 17.27 mm | - | - | - |
| 1778079791 | 15.56° C | 99% | 1007.7 hPa | 17.27 mm | - | - | - |
| 1778077277 | 15° C | 99% | 1007.1 hPa | 17.02 mm | - | - | - |
| 1778076575 | 14.44° C | 99% | 1007.1 hPa | 17.02 mm | - | - | - |
| 1778074430 | 14.44° C | 99% | 1007.1 hPa | 16.76 mm | - | - | - |
| 1778071906 | 14.44° C | 99% | 1006.7 hPa | 16.51 mm | - | - | - |
| 1778070800 | 13.89° C | 99% | 1006.7 hPa | 16.51 mm | - | - | - |
| 1778070435 | 13.89° C | 99% | 1006.7 hPa | 16.26 mm | - | - | - |
| 1778067588 | 13.33° C | 99% | 1006.4 hPa | 15.49 mm | - | - | - |
| 1778065753 | 13.33° C | 99% | 1006 hPa | 14.99 mm | - | - | - |
| 1778063631 | 13.33° C | 99% | 1005.7 hPa | 12.45 mm | - | - | - |
| 1778059273 | 13.33° C | 99% | 1007.1 hPa | 6.86 mm | - | - | - |
| 1778057856 | 13.33° C | 99% | 1007.1 hPa | 2.54 mm | - | - | - |
| 1778056766 | 13.33° C | 99% | 1006.4 hPa | 0.76 mm | - | - | - |
| 1778056417 | 13.33° C | 99% | 1006.4 hPa | 0.76 mm | - | - | - |
| 1778052789 | 13.89° C | 94% | 1006.4 hPa | 0 mm | - | - | - |
* Rain since midnight (hover to see other rain measurements)
** Current wind speed in m/s (hover to see current wind gust speed)